sensor_id;sensor_type;location;lat;lon;timestamp;P1;durP1;ratioP1;P2;durP2;ratioP2
70078;SDS011;57451;52.496;13.456;2023-03-23T00:00:46;5.07;;;2.15;;
70078;SDS011;57451;52.496;13.456;2023-03-23T00:03:14;4.83;;;2.10;;
70078;SDS011;57451;52.496;13.456;2023-03-23T00:05:40;5.28;;;2.17;;
70078;SDS011;57451;52.496;13.456;2023-03-23T00:08:07;4.75;;;2.40;;
70078;SDS011;57451;52.496;13.456;2023-03-23T00:10:34;4.55;;;2.20;;
70078;SDS011;57451;52.496;13.456;2023-03-23T00:13:01;4.07;;;2.00;;
70078;SDS011;57451;52.496;13.456;2023-03-23T00:15:28;4.10;;;2.10;;
70078;SDS011;57451;52.496;13.456;2023-03-23T00:17:58;4.75;;;2.13;;
70078;SDS011;57451;52.496;13.456;2023-03-23T00:20:31;4.45;;;2.30;;
70078;SDS011;57451;52.496;13.456;2023-03-23T00:23:05;4.80;;;2.03;;
70078;SDS011;57451;52.496;13.456;2023-03-23T00:25:32;5.18;;;1.92;;
70078;SDS011;57451;52.496;13.456;2023-03-23T00:27:58;5.90;;;2.10;;
70078;SDS011;57451;52.496;13.456;2023-03-23T00:30:26;5.35;;;2.15;;
70078;SDS011;57451;52.496;13.456;2023-03-23T00:32:52;4.55;;;2.10;;
70078;SDS011;57451;52.496;13.456;2023-03-23T00:35:18;5.05;;;2.17;;
70078;SDS011;57451;52.496;13.456;2023-03-23T00:37:46;5.85;;;2.00;;
70078;SDS011;57451;52.496;13.456;2023-03-23T00:40:12;5.63;;;2.37;;
70078;SDS011;57451;52.496;13.456;2023-03-23T00:42:39;4.43;;;2.20;;
70078;SDS011;57451;52.496;13.456;2023-03-23T00:45:06;5.72;;;2.50;;
70078;SDS011;57451;52.496;13.456;2023-03-23T00:47:36;5.60;;;2.33;;
70078;SDS011;57451;52.496;13.456;2023-03-23T00:50:03;5.18;;;2.25;;
70078;SDS011;57451;52.496;13.456;2023-03-23T00:52:30;4.43;;;1.90;;
70078;SDS011;57451;52.496;13.456;2023-03-23T00:54:58;5.60;;;2.28;;
70078;SDS011;57451;52.496;13.456;2023-03-23T00:57:24;6.45;;;2.20;;
70078;SDS011;57451;52.496;13.456;2023-03-23T00:59:51;3.95;;;1.95;;
70078;SDS011;57451;52.496;13.456;2023-03-23T01:02:17;5.00;;;2.17;;
70078;SDS011;57451;52.496;13.456;2023-03-23T01:04:45;5.53;;;2.10;;
70078;SDS011;57451;52.496;13.456;2023-03-23T01:07:11;6.15;;;2.25;;
70078;SDS011;57451;52.496;13.456;2023-03-23T01:09:43;5.03;;;2.20;;
70078;SDS011;57451;52.496;13.456;2023-03-23T01:12:12;5.70;;;2.03;;
70078;SDS011;57451;52.496;13.456;2023-03-23T01:14:40;6.30;;;2.00;;
70078;SDS011;57451;52.496;13.456;2023-03-23T01:17:06;5.90;;;2.10;;
70078;SDS011;57451;52.496;13.456;2023-03-23T01:19:34;5.45;;;1.92;;
70078;SDS011;57451;52.496;13.456;2023-03-23T01:22:00;4.25;;;2.00;;
70078;SDS011;57451;52.496;13.456;2023-03-23T01:24:26;4.47;;;2.30;;
70078;SDS011;57451;52.496;13.456;2023-03-23T01:26:53;4.53;;;2.15;;
70078;SDS011;57451;52.496;13.456;2023-03-23T01:29:20;4.17;;;1.87;;
70078;SDS011;57451;52.496;13.456;2023-03-23T01:31:46;7.13;;;2.03;;
70078;SDS011;57451;52.496;13.456;2023-03-23T01:34:12;5.43;;;1.85;;
70078;SDS011;57451;52.496;13.456;2023-03-23T01:36:39;3.83;;;2.05;;
70078;SDS011;57451;52.496;13.456;2023-03-23T01:39:05;4.07;;;2.10;;
70078;SDS011;57451;52.496;13.456;2023-03-23T01:41:32;5.03;;;2.20;;
70078;SDS011;57451;52.496;13.456;2023-03-23T01:44:05;4.80;;;2.20;;
70078;SDS011;57451;52.496;13.456;2023-03-23T01:46:40;5.18;;;2.35;;
70078;SDS011;57451;52.496;13.456;2023-03-23T01:49:07;4.85;;;2.13;;
70078;SDS011;57451;52.496;13.456;2023-03-23T01:51:39;4.78;;;2.10;;
70078;SDS011;57451;52.496;13.456;2023-03-23T01:54:08;4.33;;;2.20;;
70078;SDS011;57451;52.496;13.456;2023-03-23T01:56:40;6.32;;;2.40;;
70078;SDS011;57451;52.496;13.456;2023-03-23T01:59:13;6.30;;;2.22;;
70078;SDS011;57451;52.496;13.456;2023-03-23T02:01:45;5.93;;;2.20;;
70078;SDS011;57451;52.496;13.456;2023-03-23T02:04:12;7.30;;;2.35;;
70078;SDS011;57451;52.496;13.456;2023-03-23T02:06:40;4.93;;;2.17;;
70078;SDS011;57451;52.496;13.456;2023-03-23T02:09:13;4.88;;;2.05;;
70078;SDS011;57451;52.496;13.456;2023-03-23T02:11:43;5.78;;;2.22;;
70078;SDS011;57451;52.496;13.456;2023-03-23T02:14:10;5.82;;;2.05;;
70078;SDS011;57451;52.496;13.456;2023-03-23T02:16:39;5.90;;;2.30;;
70078;SDS011;57451;52.496;13.456;2023-03-23T02:19:16;4.50;;;2.17;;
70078;SDS011;57451;52.496;13.456;2023-03-23T02:22:11;4.20;;;2.03;;
70078;SDS011;57451;52.496;13.456;2023-03-23T02:25:04;4.93;;;2.40;;
70078;SDS011;57451;52.496;13.456;2023-03-23T02:30:49;5.28;;;2.30;;
70078;SDS011;57451;52.496;13.456;2023-03-23T02:33:38;4.30;;;1.90;;
70078;SDS011;57451;52.496;13.456;2023-03-23T02:36:12;5.05;;;1.90;;
70078;SDS011;57451;52.496;13.456;2023-03-23T02:38:47;4.55;;;2.47;;
70078;SDS011;57451;52.496;13.456;2023-03-23T02:41:19;5.57;;;2.30;;
70078;SDS011;57451;52.496;13.456;2023-03-23T02:43:50;4.57;;;2.10;;
70078;SDS011;57451;52.496;13.456;2023-03-23T02:46:17;4.03;;;1.90;;
70078;SDS011;57451;52.496;13.456;2023-03-23T02:48:47;5.35;;;2.10;;
70078;SDS011;57451;52.496;13.456;2023-03-23T02:51:16;4.63;;;2.28;;
70078;SDS011;57451;52.496;13.456;2023-03-23T02:53:46;4.40;;;1.95;;
70078;SDS011;57451;52.496;13.456;2023-03-23T02:56:16;5.07;;;2.35;;
70078;SDS011;57451;52.496;13.456;2023-03-23T02:58:44;5.07;;;2.30;;
70078;SDS011;57451;52.496;13.456;2023-03-23T03:01:13;5.88;;;2.30;;
70078;SDS011;57451;52.496;13.456;2023-03-23T03:04:03;5.40;;;2.20;;
70078;SDS011;57451;52.496;13.456;2023-03-23T03:06:36;4.05;;;2.13;;
70078;SDS011;57451;52.496;13.456;2023-03-23T03:09:08;6.35;;;2.40;;
70078;SDS011;57451;52.496;13.456;2023-03-23T03:11:40;5.70;;;2.40;;
70078;SDS011;57451;52.496;13.456;2023-03-23T03:14:12;5.50;;;2.53;;
70078;SDS011;57451;52.496;13.456;2023-03-23T03:16:45;5.60;;;2.25;;
70078;SDS011;57451;52.496;13.456;2023-03-23T03:19:17;7.55;;;2.47;;
70078;SDS011;57451;52.496;13.456;2023-03-23T03:21:48;5.53;;;2.55;;
70078;SDS011;57451;52.496;13.456;2023-03-23T03:24:22;5.00;;;2.10;;
70078;SDS011;57451;52.496;13.456;2023-03-23T03:26:51;5.50;;;2.40;;
70078;SDS011;57451;52.496;13.456;2023-03-23T03:29:43;5.63;;;2.50;;
70078;SDS011;57451;52.496;13.456;2023-03-23T03:32:15;4.25;;;2.10;;
70078;SDS011;57451;52.496;13.456;2023-03-23T03:34:45;5.18;;;2.35;;
70078;SDS011;57451;52.496;13.456;2023-03-23T03:37:13;6.23;;;2.50;;
70078;SDS011;57451;52.496;13.456;2023-03-23T03:39:41;4.55;;;2.00;;
70078;SDS011;57451;52.496;13.456;2023-03-23T03:42:09;6.90;;;2.42;;
70078;SDS011;57451;52.496;13.456;2023-03-23T03:44:36;5.00;;;2.40;;
70078;SDS011;57451;52.496;13.456;2023-03-23T03:47:02;5.45;;;2.40;;
70078;SDS011;57451;52.496;13.456;2023-03-23T03:49:28;5.10;;;1.93;;
70078;SDS011;57451;52.496;13.456;2023-03-23T03:51:57;6.65;;;2.15;;
70078;SDS011;57451;52.496;13.456;2023-03-23T03:54:32;5.13;;;2.30;;
70078;SDS011;57451;52.496;13.456;2023-03-23T03:56:58;4.78;;;1.90;;
70078;SDS011;57451;52.496;13.456;2023-03-23T03:59:51;4.65;;;2.10;;
70078;SDS011;57451;52.496;13.456;2023-03-23T04:02:40;4.67;;;2.00;;
70078;SDS011;57451;52.496;13.456;2023-03-23T04:05:08;4.65;;;2.10;;
70078;SDS011;57451;52.496;13.456;2023-03-23T04:07:37;4.78;;;2.22;;
70078;SDS011;57451;52.496;13.456;2023-03-23T04:10:08;4.75;;;2.40;;
70078;SDS011;57451;52.496;13.456;2023-03-23T04:12:36;6.05;;;2.17;;
70078;SDS011;57451;52.496;13.456;2023-03-23T04:15:23;5.43;;;2.13;;
70078;SDS011;57451;52.496;13.456;2023-03-23T04:17:50;4.22;;;2.00;;
70078;SDS011;57451;52.496;13.456;2023-03-23T04:20:16;4.95;;;2.00;;
70078;SDS011;57451;52.496;13.456;2023-03-23T04:22:49;4.18;;;2.00;;
70078;SDS011;57451;52.496;13.456;2023-03-23T04:25:16;4.78;;;2.10;;
70078;SDS011;57451;52.496;13.456;2023-03-23T04:27:47;4.40;;;2.10;;
70078;SDS011;57451;52.496;13.456;2023-03-23T04:30:19;5.63;;;2.28;;
70078;SDS011;57451;52.496;13.456;2023-03-23T04:32:59;5.95;;;2.13;;
70078;SDS011;57451;52.496;13.456;2023-03-23T04:35:27;5.47;;;2.10;;
70078;SDS011;57451;52.496;13.456;2023-03-23T04:38:15;5.22;;;2.22;;
70078;SDS011;57451;52.496;13.456;2023-03-23T04:40:46;4.10;;;1.97;;
70078;SDS011;57451;52.496;13.456;2023-03-23T04:43:39;5.70;;;2.42;;
70078;SDS011;57451;52.496;13.456;2023-03-23T04:46:27;4.53;;;2.20;;
70078;SDS011;57451;52.496;13.456;2023-03-23T04:48:57;5.65;;;2.50;;
70078;SDS011;57451;52.496;13.456;2023-03-23T04:51:29;11.13;;;2.50;;
70078;SDS011;57451;52.496;13.456;2023-03-23T04:54:11;4.97;;;2.23;;
70078;SDS011;57451;52.496;13.456;2023-03-23T04:56:40;4.72;;;2.08;;
70078;SDS011;57451;52.496;13.456;2023-03-23T04:59:10;5.15;;;2.05;;
70078;SDS011;57451;52.496;13.456;2023-03-23T05:02:08;6.55;;;2.30;;
70078;SDS011;57451;52.496;13.456;2023-03-23T05:04:35;4.35;;;2.45;;
70078;SDS011;57451;52.496;13.456;2023-03-23T05:07:10;4.73;;;2.33;;
70078;SDS011;57451;52.496;13.456;2023-03-23T05:09:46;5.13;;;2.30;;
70078;SDS011;57451;52.496;13.456;2023-03-23T05:12:12;7.97;;;2.35;;
70078;SDS011;57451;52.496;13.456;2023-03-23T05:14:50;5.20;;;2.40;;
70078;SDS011;57451;52.496;13.456;2023-03-23T05:17:19;5.05;;;2.63;;
70078;SDS011;57451;52.496;13.456;2023-03-23T05:19:48;5.93;;;2.70;;
70078;SDS011;57451;52.496;13.456;2023-03-23T05:22:32;5.63;;;2.55;;
70078;SDS011;57451;52.496;13.456;2023-03-23T05:25:01;9.52;;;2.75;;
70078;SDS011;57451;52.496;13.456;2023-03-23T05:27:31;5.38;;;2.40;;
70078;SDS011;57451;52.496;13.456;2023-03-23T05:30:02;5.78;;;2.30;;
70078;SDS011;57451;52.496;13.456;2023-03-23T05:32:31;5.57;;;2.40;;
70078;SDS011;57451;52.496;13.456;2023-03-23T05:35:07;6.57;;;2.28;;
70078;SDS011;57451;52.496;13.456;2023-03-23T05:37:33;5.80;;;2.25;;
70078;SDS011;57451;52.496;13.456;2023-03-23T05:40:08;6.72;;;2.22;;
70078;SDS011;57451;52.496;13.456;2023-03-23T05:42:44;4.47;;;2.20;;
70078;SDS011;57451;52.496;13.456;2023-03-23T05:45:18;4.20;;;2.10;;
70078;SDS011;57451;52.496;13.456;2023-03-23T05:47:46;8.43;;;2.38;;
70078;SDS011;57451;52.496;13.456;2023-03-23T05:50:18;5.28;;;1.90;;
70078;SDS011;57451;52.496;13.456;2023-03-23T05:52:45;6.50;;;2.10;;
70078;SDS011;57451;52.496;13.456;2023-03-23T05:55:14;4.75;;;2.00;;
70078;SDS011;57451;52.496;13.456;2023-03-23T05:57:45;4.20;;;2.00;;
70078;SDS011;57451;52.496;13.456;2023-03-23T06:00:25;3.88;;;1.52;;
70078;SDS011;57451;52.496;13.456;2023-03-23T06:03:02;5.88;;;1.90;;
70078;SDS011;57451;52.496;13.456;2023-03-23T06:05:45;4.55;;;1.77;;
70078;SDS011;57451;52.496;13.456;2023-03-23T06:08:15;5.63;;;1.77;;
70078;SDS011;57451;52.496;13.456;2023-03-23T06:10:42;3.60;;;1.43;;
70078;SDS011;57451;52.496;13.456;2023-03-23T06:13:11;5.40;;;1.85;;
70078;SDS011;57451;52.496;13.456;2023-03-23T06:15:43;3.85;;;1.70;;
70078;SDS011;57451;52.496;13.456;2023-03-23T06:18:17;5.00;;;1.58;;
70078;SDS011;57451;52.496;13.456;2023-03-23T06:20:55;4.80;;;1.63;;
70078;SDS011;57451;52.496;13.456;2023-03-23T06:23:30;4.90;;;1.73;;
70078;SDS011;57451;52.496;13.456;2023-03-23T06:25:59;5.03;;;1.50;;
70078;SDS011;57451;52.496;13.456;2023-03-23T06:28:30;3.78;;;1.45;;
70078;SDS011;57451;52.496;13.456;2023-03-23T06:30:58;5.95;;;1.70;;
70078;SDS011;57451;52.496;13.456;2023-03-23T06:33:24;5.50;;;1.90;;
70078;SDS011;57451;52.496;13.456;2023-03-23T06:36:11;5.20;;;1.53;;
70078;SDS011;57451;52.496;13.456;2023-03-23T06:39:15;3.53;;;1.40;;
70078;SDS011;57451;52.496;13.456;2023-03-23T06:41:56;4.20;;;1.63;;
70078;SDS011;57451;52.496;13.456;2023-03-23T06:44:22;4.55;;;1.60;;
70078;SDS011;57451;52.496;13.456;2023-03-23T06:46:48;4.38;;;1.60;;
70078;SDS011;57451;52.496;13.456;2023-03-23T06:49:19;4.60;;;1.60;;
70078;SDS011;57451;52.496;13.456;2023-03-23T06:51:52;5.10;;;1.40;;
70078;SDS011;57451;52.496;13.456;2023-03-23T06:54:21;4.30;;;1.70;;
70078;SDS011;57451;52.496;13.456;2023-03-23T06:56:49;3.90;;;1.30;;
70078;SDS011;57451;52.496;13.456;2023-03-23T06:59:17;3.97;;;1.80;;
70078;SDS011;57451;52.496;13.456;2023-03-23T07:01:43;4.13;;;1.60;;
70078;SDS011;57451;52.496;13.456;2023-03-23T07:04:10;4.20;;;1.70;;
70078;SDS011;57451;52.496;13.456;2023-03-23T07:06:46;4.80;;;1.70;;
70078;SDS011;57451;52.496;13.456;2023-03-23T07:09:12;4.38;;;1.70;;
70078;SDS011;57451;52.496;13.456;2023-03-23T07:11:40;5.03;;;1.83;;
70078;SDS011;57451;52.496;13.456;2023-03-23T07:14:18;5.47;;;2.03;;
70078;SDS011;57451;52.496;13.456;2023-03-23T07:16:45;5.85;;;2.03;;
70078;SDS011;57451;52.496;13.456;2023-03-23T07:19:12;5.53;;;1.88;;
70078;SDS011;57451;52.496;13.456;2023-03-23T07:21:39;7.40;;;2.30;;
70078;SDS011;57451;52.496;13.456;2023-03-23T07:24:06;5.90;;;1.88;;
70078;SDS011;57451;52.496;13.456;2023-03-23T07:26:45;4.40;;;1.80;;
70078;SDS011;57451;52.496;13.456;2023-03-23T07:29:12;5.40;;;1.80;;
70078;SDS011;57451;52.496;13.456;2023-03-23T07:31:43;4.50;;;2.00;;
70078;SDS011;57451;52.496;13.456;2023-03-23T07:34:10;4.78;;;1.80;;
70078;SDS011;57451;52.496;13.456;2023-03-23T07:36:45;4.72;;;2.08;;
70078;SDS011;57451;52.496;13.456;2023-03-23T07:39:12;4.83;;;1.87;;
70078;SDS011;57451;52.496;13.456;2023-03-23T07:41:39;4.88;;;1.83;;
70078;SDS011;57451;52.496;13.456;2023-03-23T07:44:14;4.05;;;1.85;;
70078;SDS011;57451;52.496;13.456;2023-03-23T07:46:44;5.68;;;1.80;;
70078;SDS011;57451;52.496;13.456;2023-03-23T07:49:15;4.80;;;1.58;;
70078;SDS011;57451;52.496;13.456;2023-03-23T07:51:47;5.77;;;2.00;;
70078;SDS011;57451;52.496;13.456;2023-03-23T07:54:14;5.93;;;2.28;;
70078;SDS011;57451;52.496;13.456;2023-03-23T07:57:04;5.32;;;2.53;;
70078;SDS011;57451;52.496;13.456;2023-03-23T07:59:36;5.88;;;1.98;;
70078;SDS011;57451;52.496;13.456;2023-03-23T08:02:04;4.68;;;1.70;;
70078;SDS011;57451;52.496;13.456;2023-03-23T08:04:34;4.93;;;1.80;;
70078;SDS011;57451;52.496;13.456;2023-03-23T08:07:32;7.25;;;2.05;;
70078;SDS011;57451;52.496;13.456;2023-03-23T08:10:09;5.50;;;2.00;;
70078;SDS011;57451;52.496;13.456;2023-03-23T08:12:53;5.57;;;2.10;;
70078;SDS011;57451;52.496;13.456;2023-03-23T08:15:33;5.68;;;1.88;;
70078;SDS011;57451;52.496;13.456;2023-03-23T08:18:42;6.30;;;2.20;;
70078;SDS011;57451;52.496;13.456;2023-03-23T08:21:34;4.80;;;2.28;;
70078;SDS011;57451;52.496;13.456;2023-03-23T08:24:06;6.45;;;2.40;;
70078;SDS011;57451;52.496;13.456;2023-03-23T08:26:58;5.75;;;2.00;;
70078;SDS011;57451;52.496;13.456;2023-03-23T08:29:46;5.90;;;2.60;;
70078;SDS011;57451;52.496;13.456;2023-03-23T08:32:42;4.63;;;2.43;;
70078;SDS011;57451;52.496;13.456;2023-03-23T08:35:24;6.15;;;2.63;;
70078;SDS011;57451;52.496;13.456;2023-03-23T08:38:01;6.13;;;2.28;;
70078;SDS011;57451;52.496;13.456;2023-03-23T08:40:42;5.30;;;2.40;;
70078;SDS011;57451;52.496;13.456;2023-03-23T08:43:30;4.88;;;1.85;;
70078;SDS011;57451;52.496;13.456;2023-03-23T08:46:16;4.70;;;2.00;;
70078;SDS011;57451;52.496;13.456;2023-03-23T08:49:07;5.47;;;2.13;;
70078;SDS011;57451;52.496;13.456;2023-03-23T08:51:53;5.35;;;2.00;;
70078;SDS011;57451;52.496;13.456;2023-03-23T08:54:47;5.25;;;2.05;;
70078;SDS011;57451;52.496;13.456;2023-03-23T08:57:45;4.65;;;2.15;;
70078;SDS011;57451;52.496;13.456;2023-03-23T09:00:31;4.83;;;1.80;;
70078;SDS011;57451;52.496;13.456;2023-03-23T09:03:09;6.55;;;2.17;;
70078;SDS011;57451;52.496;13.456;2023-03-23T09:05:50;5.63;;;2.03;;
70078;SDS011;57451;52.496;13.456;2023-03-23T09:08:24;4.53;;;1.90;;
70078;SDS011;57451;52.496;13.456;2023-03-23T09:10:50;3.67;;;1.90;;
70078;SDS011;57451;52.496;13.456;2023-03-23T09:13:16;4.43;;;1.77;;
70078;SDS011;57451;52.496;13.456;2023-03-23T09:15:43;4.15;;;1.95;;
70078;SDS011;57451;52.496;13.456;2023-03-23T09:18:09;3.67;;;1.80;;
70078;SDS011;57451;52.496;13.456;2023-03-23T09:20:35;5.03;;;1.75;;
70078;SDS011;57451;52.496;13.456;2023-03-23T09:23:02;4.00;;;1.73;;
70078;SDS011;57451;52.496;13.456;2023-03-23T09:25:31;5.73;;;2.00;;
70078;SDS011;57451;52.496;13.456;2023-03-23T09:27:58;4.50;;;1.80;;
70078;SDS011;57451;52.496;13.456;2023-03-23T09:30:25;4.80;;;2.00;;
70078;SDS011;57451;52.496;13.456;2023-03-23T09:32:52;4.80;;;2.00;;
70078;SDS011;57451;52.496;13.456;2023-03-23T09:35:19;4.38;;;1.88;;
70078;SDS011;57451;52.496;13.456;2023-03-23T09:37:47;4.60;;;1.73;;
70078;SDS011;57451;52.496;13.456;2023-03-23T09:40:16;5.25;;;2.00;;
70078;SDS011;57451;52.496;13.456;2023-03-23T09:42:49;4.63;;;2.08;;
70078;SDS011;57451;52.496;13.456;2023-03-23T09:45:29;5.00;;;2.00;;
70078;SDS011;57451;52.496;13.456;2023-03-23T09:48:13;4.88;;;1.83;;
70078;SDS011;57451;52.496;13.456;2023-03-23T09:50:59;4.03;;;1.60;;
70078;SDS011;57451;52.496;13.456;2023-03-23T09:53:31;4.35;;;1.52;;
70078;SDS011;57451;52.496;13.456;2023-03-23T09:56:03;3.20;;;1.17;;
70078;SDS011;57451;52.496;13.456;2023-03-23T09:58:39;5.53;;;1.35;;
70078;SDS011;57451;52.496;13.456;2023-03-23T10:01:12;4.57;;;1.60;;
70078;SDS011;57451;52.496;13.456;2023-03-23T10:03:43;4.03;;;1.50;;
70078;SDS011;57451;52.496;13.456;2023-03-23T10:06:11;3.78;;;1.58;;
70078;SDS011;57451;52.496;13.456;2023-03-23T10:08:42;4.03;;;1.50;;
70078;SDS011;57451;52.496;13.456;2023-03-23T10:11:11;3.78;;;1.73;;
70078;SDS011;57451;52.496;13.456;2023-03-23T10:13:49;4.90;;;1.70;;
70078;SDS011;57451;52.496;13.456;2023-03-23T10:16:22;3.73;;;1.33;;
70078;SDS011;57451;52.496;13.456;2023-03-23T10:18:53;3.50;;;1.38;;
70078;SDS011;57451;52.496;13.456;2023-03-23T10:21:24;4.13;;;1.60;;
70078;SDS011;57451;52.496;13.456;2023-03-23T10:23:53;4.18;;;1.45;;
70078;SDS011;57451;52.496;13.456;2023-03-23T10:26:33;4.43;;;1.55;;
70078;SDS011;57451;52.496;13.456;2023-03-23T10:29:12;6.17;;;1.70;;
70078;SDS011;57451;52.496;13.456;2023-03-23T10:31:43;3.72;;;1.60;;
70078;SDS011;57451;52.496;13.456;2023-03-23T10:34:14;4.82;;;1.45;;
70078;SDS011;57451;52.496;13.456;2023-03-23T10:36:50;4.20;;;1.40;;
70078;SDS011;57451;52.496;13.456;2023-03-23T10:39:22;4.47;;;1.55;;
70078;SDS011;57451;52.496;13.456;2023-03-23T10:41:51;3.77;;;1.20;;
70078;SDS011;57451;52.496;13.456;2023-03-23T10:44:20;3.70;;;1.25;;
70078;SDS011;57451;52.496;13.456;2023-03-23T10:46:49;4.63;;;1.52;;
70078;SDS011;57451;52.496;13.456;2023-03-23T10:49:21;3.58;;;1.23;;
70078;SDS011;57451;52.496;13.456;2023-03-23T10:51:52;4.43;;;1.50;;
70078;SDS011;57451;52.496;13.456;2023-03-23T10:54:25;3.80;;;1.50;;
70078;SDS011;57451;52.496;13.456;2023-03-23T10:56:57;4.22;;;1.50;;
70078;SDS011;57451;52.496;13.456;2023-03-23T10:59:27;4.80;;;1.58;;
70078;SDS011;57451;52.496;13.456;2023-03-23T11:01:55;6.03;;;1.58;;
70078;SDS011;57451;52.496;13.456;2023-03-23T11:04:25;4.25;;;1.65;;
70078;SDS011;57451;52.496;13.456;2023-03-23T11:06:53;3.93;;;1.30;;
70078;SDS011;57451;52.496;13.456;2023-03-23T11:09:33;3.20;;;1.40;;
70078;SDS011;57451;52.496;13.456;2023-03-23T11:12:01;3.10;;;1.35;;
70078;SDS011;57451;52.496;13.456;2023-03-23T11:14:29;6.45;;;1.67;;
70078;SDS011;57451;52.496;13.456;2023-03-23T11:16:59;4.18;;;1.50;;
70078;SDS011;57451;52.496;13.456;2023-03-23T11:19:28;4.47;;;1.60;;
70078;SDS011;57451;52.496;13.456;2023-03-23T11:21:57;4.35;;;1.40;;
70078;SDS011;57451;52.496;13.456;2023-03-23T11:24:33;4.22;;;1.50;;
70078;SDS011;57451;52.496;13.456;2023-03-23T11:27:00;6.07;;;1.88;;
70078;SDS011;57451;52.496;13.456;2023-03-23T11:29:33;4.50;;;1.40;;
70078;SDS011;57451;52.496;13.456;2023-03-23T11:32:02;4.60;;;1.43;;
70078;SDS011;57451;52.496;13.456;2023-03-23T11:34:34;4.05;;;1.50;;
70078;SDS011;57451;52.496;13.456;2023-03-23T11:37:06;4.32;;;1.70;;
70078;SDS011;57451;52.496;13.456;2023-03-23T11:39:45;4.47;;;1.50;;
70078;SDS011;57451;52.496;13.456;2023-03-23T11:42:17;3.75;;;1.42;;
70078;SDS011;57451;52.496;13.456;2023-03-23T11:44:46;4.37;;;1.53;;
70078;SDS011;57451;52.496;13.456;2023-03-23T11:47:15;3.85;;;1.50;;
70078;SDS011;57451;52.496;13.456;2023-03-23T11:49:48;4.32;;;1.60;;
70078;SDS011;57451;52.496;13.456;2023-03-23T11:52:21;4.13;;;1.60;;
70078;SDS011;57451;52.496;13.456;2023-03-23T11:54:55;4.13;;;1.45;;
70078;SDS011;57451;52.496;13.456;2023-03-23T11:57:28;3.70;;;1.60;;
70078;SDS011;57451;52.496;13.456;2023-03-23T11:59:57;3.90;;;1.50;;
70078;SDS011;57451;52.496;13.456;2023-03-23T12:02:31;3.35;;;1.20;;
70078;SDS011;57451;52.496;13.456;2023-03-23T12:05:14;4.30;;;1.45;;
70078;SDS011;57451;52.496;13.456;2023-03-23T12:07:56;4.25;;;1.60;;
70078;SDS011;57451;52.496;13.456;2023-03-23T12:10:39;5.77;;;1.60;;
70078;SDS011;57451;52.496;13.456;2023-03-23T12:13:16;3.55;;;1.40;;
70078;SDS011;57451;52.496;13.456;2023-03-23T12:15:57;3.28;;;1.45;;
70078;SDS011;57451;52.496;13.456;2023-03-23T12:18:30;3.40;;;1.17;;
70078;SDS011;57451;52.496;13.456;2023-03-23T12:21:06;3.35;;;1.48;;
70078;SDS011;57451;52.496;13.456;2023-03-23T12:23:43;3.70;;;1.50;;
70078;SDS011;57451;52.496;13.456;2023-03-23T12:26:17;6.05;;;1.42;;
70078;SDS011;57451;52.496;13.456;2023-03-23T12:28:52;4.28;;;1.67;;
70078;SDS011;57451;52.496;13.456;2023-03-23T12:31:35;5.50;;;1.50;;
70078;SDS011;57451;52.496;13.456;2023-03-23T12:34:11;4.22;;;1.55;;
70078;SDS011;57451;52.496;13.456;2023-03-23T12:36:48;3.93;;;1.57;;
70078;SDS011;57451;52.496;13.456;2023-03-23T12:39:34;5.20;;;1.60;;
70078;SDS011;57451;52.496;13.456;2023-03-23T12:42:15;5.13;;;1.50;;
70078;SDS011;57451;52.496;13.456;2023-03-23T12:44:47;3.67;;;1.40;;
70078;SDS011;57451;52.496;13.456;2023-03-23T12:47:20;4.88;;;1.50;;
70078;SDS011;57451;52.496;13.456;2023-03-23T12:49:56;4.23;;;1.43;;
70078;SDS011;57451;52.496;13.456;2023-03-23T12:52:30;4.43;;;1.30;;
70078;SDS011;57451;52.496;13.456;2023-03-23T12:55:02;5.47;;;1.80;;
70078;SDS011;57451;52.496;13.456;2023-03-23T12:57:31;4.53;;;1.63;;
70078;SDS011;57451;52.496;13.456;2023-03-23T13:00:03;5.55;;;1.70;;
70078;SDS011;57451;52.496;13.456;2023-03-23T13:02:40;4.20;;;1.60;;
70078;SDS011;57451;52.496;13.456;2023-03-23T13:05:09;4.47;;;1.63;;
70078;SDS011;57451;52.496;13.456;2023-03-23T13:07:42;5.65;;;2.35;;
70078;SDS011;57451;52.496;13.456;2023-03-23T13:10:12;5.93;;;1.83;;
70078;SDS011;57451;52.496;13.456;2023-03-23T13:12:45;3.88;;;1.70;;
70078;SDS011;57451;52.496;13.456;2023-03-23T13:15:16;4.83;;;1.60;;
70078;SDS011;57451;52.496;13.456;2023-03-23T13:17:54;3.90;;;1.60;;
70078;SDS011;57451;52.496;13.456;2023-03-23T13:23:21;4.40;;;1.52;;
70078;SDS011;57451;52.496;13.456;2023-03-23T13:25:52;4.97;;;1.70;;
70078;SDS011;57451;52.496;13.456;2023-03-23T13:28:22;4.90;;;1.40;;
70078;SDS011;57451;52.496;13.456;2023-03-23T13:30:58;3.70;;;1.30;;
70078;SDS011;57451;52.496;13.456;2023-03-23T13:33:29;3.85;;;1.50;;
70078;SDS011;57451;52.496;13.456;2023-03-23T13:36:01;4.65;;;1.50;;
70078;SDS011;57451;52.496;13.456;2023-03-23T13:38:32;4.40;;;1.60;;
70078;SDS011;57451;52.496;13.456;2023-03-23T13:40:59;3.70;;;1.40;;
70078;SDS011;57451;52.496;13.456;2023-03-23T13:43:33;4.63;;;1.27;;
70078;SDS011;57451;52.496;13.456;2023-03-23T13:46:08;5.45;;;1.48;;
70078;SDS011;57451;52.496;13.456;2023-03-23T13:48:44;4.45;;;1.58;;
70078;SDS011;57451;52.496;13.456;2023-03-23T13:51:25;5.50;;;1.60;;
70078;SDS011;57451;52.496;13.456;2023-03-23T13:54:05;4.80;;;1.60;;
70078;SDS011;57451;52.496;13.456;2023-03-23T13:56:40;5.35;;;1.50;;
70078;SDS011;57451;52.496;13.456;2023-03-23T13:59:07;4.35;;;1.63;;
70078;SDS011;57451;52.496;13.456;2023-03-23T14:01:39;6.82;;;1.58;;
70078;SDS011;57451;52.496;13.456;2023-03-23T14:04:10;4.18;;;1.52;;
70078;SDS011;57451;52.496;13.456;2023-03-23T14:06:40;3.90;;;1.60;;
70078;SDS011;57451;52.496;13.456;2023-03-23T14:09:15;4.85;;;1.48;;
70078;SDS011;57451;52.496;13.456;2023-03-23T14:11:47;4.93;;;1.58;;
70078;SDS011;57451;52.496;13.456;2023-03-23T14:14:20;4.18;;;1.50;;
70078;SDS011;57451;52.496;13.456;2023-03-23T14:16:51;4.32;;;1.65;;
70078;SDS011;57451;52.496;13.456;2023-03-23T14:19:21;5.67;;;1.50;;
70078;SDS011;57451;52.496;13.456;2023-03-23T14:21:49;4.05;;;1.30;;
70078;SDS011;57451;52.496;13.456;2023-03-23T14:24:19;3.45;;;1.50;;
70078;SDS011;57451;52.496;13.456;2023-03-23T14:26:48;4.20;;;1.40;;
70078;SDS011;57451;52.496;13.456;2023-03-23T14:29:18;4.65;;;1.60;;
70078;SDS011;57451;52.496;13.456;2023-03-23T14:31:47;3.73;;;1.63;;
70078;SDS011;57451;52.496;13.456;2023-03-23T14:34:18;3.90;;;1.60;;
70078;SDS011;57451;52.496;13.456;2023-03-23T14:36:47;5.05;;;1.80;;
70078;SDS011;57451;52.496;13.456;2023-03-23T14:39:16;5.05;;;1.92;;
70078;SDS011;57451;52.496;13.456;2023-03-23T14:41:46;3.72;;;1.63;;
70078;SDS011;57451;52.496;13.456;2023-03-23T14:44:14;4.27;;;1.47;;
70078;SDS011;57451;52.496;13.456;2023-03-23T14:46:42;5.57;;;1.50;;
70078;SDS011;57451;52.496;13.456;2023-03-23T14:49:11;3.90;;;1.70;;
70078;SDS011;57451;52.496;13.456;2023-03-23T14:51:50;4.07;;;1.60;;
70078;SDS011;57451;52.496;13.456;2023-03-23T14:54:22;3.95;;;1.50;;
70078;SDS011;57451;52.496;13.456;2023-03-23T14:56:50;4.43;;;1.67;;
70078;SDS011;57451;52.496;13.456;2023-03-23T14:59:16;3.95;;;1.67;;
70078;SDS011;57451;52.496;13.456;2023-03-23T15:01:43;4.95;;;1.60;;
70078;SDS011;57451;52.496;13.456;2023-03-23T15:04:13;4.57;;;1.70;;
70078;SDS011;57451;52.496;13.456;2023-03-23T15:06:42;4.85;;;2.05;;
70078;SDS011;57451;52.496;13.456;2023-03-23T15:09:13;4.23;;;1.80;;
70078;SDS011;57451;52.496;13.456;2023-03-23T15:11:49;5.22;;;1.70;;